createdAt,value
2019-05-13T00:02:28.052Z,101545.72
2019-05-13T00:05:00.016Z,101550.88
2019-05-13T00:07:34.097Z,101553.84
2019-05-13T00:10:08.531Z,101553.56
2019-05-13T00:12:40.553Z,101561.71
2019-05-13T00:15:13.954Z,101558.44
2019-05-13T00:17:45.751Z,101554.92
2019-05-13T00:20:17.632Z,101554.41
2019-05-13T00:22:50.516Z,101562.00
2019-05-13T00:25:24.154Z,101560.35
2019-05-13T00:27:55.953Z,101561.42
2019-05-13T00:30:27.838Z,101566.05
2019-05-13T00:32:59.986Z,101564.12
2019-05-13T00:35:33.918Z,101570.05
2019-05-13T00:38:05.259Z,101566.23
2019-05-13T00:40:37.118Z,101573.00
2019-05-13T00:43:09.539Z,101561.82
2019-05-13T00:45:44.317Z,101558.23
2019-05-13T00:48:16.169Z,101554.33
2019-05-13T00:50:47.842Z,101559.41
2019-05-13T00:53:19.799Z,101555.51
2019-05-13T00:55:53.659Z,101570.44
2019-05-13T00:58:25.352Z,101559.20
2019-05-13T01:00:57.024Z,101562.67
2019-05-13T01:03:28.866Z,101566.98
2019-05-13T01:06:00.813Z,101561.48
2019-05-13T01:08:34.142Z,101570.94
2019-05-13T01:11:07.115Z,101566.53
2019-05-13T01:13:38.883Z,101580.66
2019-05-13T01:16:10.622Z,101585.79
2019-05-13T01:18:43.256Z,101579.48
2019-05-13T01:21:15.178Z,101573.45
2019-05-13T01:23:47.133Z,101573.44
2019-05-13T01:26:19.204Z,101576.69
2019-05-13T01:28:50.945Z,101570.39
2019-05-13T01:31:23.844Z,101570.92
2019-05-13T01:33:57.452Z,101570.09
2019-05-13T01:36:29.712Z,101571.22
2019-05-13T01:39:04.144Z,101572.84
2019-05-13T01:41:35.161Z,101576.69
2019-05-13T01:44:07.085Z,101576.16
2019-05-13T01:46:39.111Z,101580.27
2019-05-13T01:49:10.963Z,101569.67
2019-05-13T01:51:44.021Z,101578.10
2019-05-13T01:54:16.225Z,101576.18
2019-05-13T01:56:48.088Z,101575.36
2019-05-13T01:59:20.043Z,101580.80
2019-05-13T02:01:53.923Z,101579.73
2019-05-13T02:04:25.307Z,101575.09
2019-05-13T02:06:56.957Z,101577.52
2019-05-13T02:09:29.309Z,101572.91
2019-05-13T02:12:01.187Z,101573.44
2019-05-13T02:14:34.075Z,101572.34
2019-05-13T02:17:06.242Z,101572.61
2019-05-13T02:19:41.280Z,101573.14
2019-05-13T02:22:14.600Z,101573.14
2019-05-13T02:24:46.659Z,101566.89
2019-05-13T02:27:18.365Z,101572.07
2019-05-13T02:29:50.172Z,101572.07
2019-05-13T02:32:23.478Z,101569.67
2019-05-13T02:34:55.216Z,101571.05
2019-05-13T02:37:29.414Z,101567.83
2019-05-13T02:40:03.706Z,101566.76
2019-05-13T02:42:33.566Z,101567.58
2019-05-13T02:45:05.962Z,101567.58
2019-05-13T02:47:37.650Z,101572.50
2019-05-13T02:50:12.228Z,101569.48
2019-05-13T02:52:44.295Z,101571.91
2019-05-13T02:55:16.575Z,101578.95
2019-05-13T02:57:48.508Z,101574.31
2019-05-13T03:00:23.556Z,101578.38
2019-05-13T03:02:55.906Z,101579.97
2019-05-13T03:05:27.443Z,101580.50
2019-05-13T03:08:03.040Z,101588.09
2019-05-13T03:10:34.065Z,101593.75
2019-05-13T03:13:06.131Z,101585.47
2019-05-13T03:15:42.690Z,101585.59
2019-05-13T03:18:13.752Z,101587.88
2019-05-13T03:20:46.003Z,101592.31
2019-05-13T03:23:17.838Z,101594.85
2019-05-13T03:25:49.674Z,101591.36
2019-05-13T03:28:23.031Z,101589.27
2019-05-13T03:30:56.798Z,101591.24
2019-05-13T03:33:28.845Z,101593.25
2019-05-13T03:36:06.402Z,101597.42
2019-05-13T03:38:53.741Z,101593.18
2019-05-13T03:41:12.184Z,101590.90
2019-05-13T03:43:44.595Z,101594.04
2019-05-13T03:46:17.878Z,101606.16
2019-05-13T03:48:52.998Z,101601.14
2019-05-13T03:51:24.979Z,101601.81
2019-05-13T03:53:57.529Z,101609.03
2019-05-13T03:56:32.609Z,101606.34
2019-05-13T03:59:02.989Z,101614.59
2019-05-13T04:01:34.983Z,101610.22
2019-05-13T04:04:06.614Z,101615.36
2019-05-13T04:06:38.593Z,101616.47
2019-05-13T04:09:22.414Z,101612.96
2019-05-13T04:11:43.772Z,101612.41
2019-05-13T04:14:15.295Z,101617.88
2019-05-13T04:16:48.983Z,101618.28
2019-05-13T04:19:23.265Z,101616.81
2019-05-13T04:21:54.467Z,101619.00
2019-05-13T04:24:26.224Z,101619.23
2019-05-13T04:26:58.099Z,101623.73
2019-05-13T04:29:32.877Z,101620.63
2019-05-13T04:32:05.073Z,101623.16
2019-05-13T04:34:36.919Z,101625.09
2019-05-13T04:37:08.643Z,101620.17
2019-05-13T04:39:50.007Z,101625.56
2019-05-13T04:42:13.750Z,101623.86
2019-05-13T04:44:45.529Z,101629.73
2019-05-13T04:47:17.188Z,101630.75
2019-05-13T04:49:49.193Z,101630.99
2019-05-13T04:52:22.232Z,101641.27
2019-05-13T04:54:54.450Z,101641.53
2019-05-13T04:57:26.162Z,101635.77
2019-05-13T04:59:58.216Z,101634.65
2019-05-13T05:02:55.008Z,101630.61
2019-05-13T05:05:33.215Z,101633.42
2019-05-13T05:08:28.405Z,101631.41
2019-05-13T05:11:22.229Z,101635.62
2019-05-13T05:14:02.477Z,101636.41
2019-05-13T05:17:03.220Z,101636.41
2019-05-13T05:20:04.068Z,101635.12
2019-05-13T05:23:12.221Z,101636.99
2019-05-13T05:26:01.774Z,101643.20
2019-05-13T05:28:55.981Z,101641.54
2019-05-13T05:31:45.632Z,101648.39
2019-05-13T05:34:35.245Z,101640.90
2019-05-13T05:37:45.419Z,101650.72
2019-05-13T05:40:31.003Z,101646.06
2019-05-13T05:42:56.895Z,101647.94
2019-05-13T05:45:28.586Z,101648.17
2019-05-13T05:48:02.255Z,101654.87
2019-05-13T05:50:35.836Z,101657.98
2019-05-13T05:53:07.501Z,101661.23
2019-05-13T05:55:41.848Z,101656.44
2019-05-13T05:58:14.772Z,101655.93
2019-05-13T06:00:48.546Z,101664.83
2019-05-13T06:03:21.948Z,101659.91
2019-05-13T06:05:54.635Z,101660.12
2019-05-13T06:08:29.110Z,101654.29
2019-05-13T06:11:01.620Z,101654.26
2019-05-13T06:13:33.643Z,101654.33
2019-05-13T06:16:05.729Z,101649.02
2019-05-13T06:18:37.679Z,101649.27
2019-05-13T06:21:12.072Z,101649.86
2019-05-13T06:23:43.155Z,101646.45
2019-05-13T06:26:14.798Z,101648.41
2019-05-13T06:28:46.434Z,101645.76
2019-05-13T06:31:21.572Z,101641.52
2019-05-13T06:33:53.455Z,101642.03
2019-05-13T06:36:26.003Z,101643.11
2019-05-13T06:38:57.856Z,101645.17
2019-05-13T06:41:32.352Z,101647.44
2019-05-13T06:44:05.825Z,101639.48
2019-05-13T06:46:37.466Z,101636.53
2019-05-13T06:49:09.310Z,101638.14
2019-05-13T06:51:42.433Z,101635.39
2019-05-13T06:54:14.095Z,101633.08
2019-05-13T06:56:45.696Z,101627.77
2019-05-13T06:59:17.341Z,101622.27
2019-05-13T07:01:51.221Z,101620.59
2019-05-13T07:04:22.532Z,101622.95
2019-05-13T07:07:08.773Z,101616.70
2019-05-13T07:09:27.906Z,101610.16
2019-05-13T07:12:02.507Z,101615.86
2019-05-13T07:14:33.562Z,101615.77
2019-05-13T07:17:05.297Z,101616.70
2019-05-13T07:19:36.949Z,101616.46
2019-05-13T07:22:08.599Z,101621.60
2019-05-13T07:24:41.455Z,101619.44
2019-05-13T07:27:13.498Z,101630.00
2019-05-13T07:29:45.505Z,101626.58
2019-05-13T07:32:17.718Z,101626.33
2019-05-13T07:34:52.865Z,101625.95
2019-05-13T07:37:23.417Z,101621.08
2019-05-13T07:39:55.218Z,101621.92
2019-05-13T07:42:27.410Z,101628.08
2019-05-13T07:45:01.380Z,101622.27
2019-05-13T07:47:32.559Z,101623.45
2019-05-13T07:50:07.186Z,101621.92
2019-05-13T07:52:39.128Z,101618.50
2019-05-13T07:55:12.115Z,101619.89
2019-05-13T07:57:43.875Z,101624.45
2019-05-13T08:00:16.051Z,101623.66
2019-05-13T08:02:47.712Z,101627.61
2019-05-13T08:05:22.224Z,101624.65
2019-05-13T08:07:53.083Z,101625.83
2019-05-13T08:10:24.647Z,101623.53
2019-05-13T08:12:56.262Z,101622.63
2019-05-13T08:15:28.136Z,101615.02
2019-05-13T08:18:02.111Z,101614.93
2019-05-13T08:20:33.160Z,101610.67
2019-05-13T08:23:04.879Z,101615.72
2019-05-13T08:25:36.618Z,101611.02
2019-05-13T08:28:08.302Z,101615.87
2019-05-13T08:30:42.673Z,101615.95
2019-05-13T08:33:13.624Z,101612.99
2019-05-13T08:35:47.197Z,101618.93
2019-05-13T08:38:18.767Z,101616.45
2019-05-13T08:40:51.240Z,101620.38
2019-05-13T08:43:23.102Z,101620.89
2019-05-13T08:45:55.758Z,101614.27
2019-05-13T08:48:27.755Z,101613.85
2019-05-13T08:50:59.327Z,101614.17
2019-05-13T08:53:31.721Z,101612.09
2019-05-13T08:56:03.744Z,101606.40
2019-05-13T08:58:35.668Z,101607.75
2019-05-13T09:01:07.338Z,101608.24
2019-05-13T09:03:41.433Z,101605.18
2019-05-13T09:06:12.199Z,101606.03
2019-05-13T09:08:43.867Z,101609.05
2019-05-13T09:11:15.668Z,101605.67
2019-05-13T09:13:47.404Z,101609.13
2019-05-13T09:16:21.417Z,101613.41
2019-05-13T09:18:52.620Z,101605.14
2019-05-13T09:21:24.294Z,101601.52
2019-05-13T09:23:55.909Z,101608.38
2019-05-13T09:26:27.671Z,101610.54
2019-05-13T09:29:01.452Z,101605.59
2019-05-13T09:31:32.702Z,101602.83
2019-05-13T09:34:04.475Z,101602.95
2019-05-13T09:36:36.161Z,101599.73
2019-05-13T09:39:09.119Z,101602.03
2019-05-13T09:41:44.651Z,101600.89
2019-05-13T09:44:16.022Z,101598.33
2019-05-13T09:46:47.566Z,101604.78
2019-05-13T09:49:20.875Z,101602.54
2019-05-13T09:51:52.539Z,101603.36
2019-05-13T09:54:32.910Z,101606.52
2019-05-13T09:57:03.155Z,101604.44
2019-05-13T09:59:34.902Z,101605.22
2019-05-13T10:02:08.613Z,101595.56
2019-05-13T10:04:43.184Z,101592.60
2019-05-13T10:07:12.739Z,101593.13
2019-05-13T10:09:48.217Z,101582.56
2019-05-13T10:12:18.095Z,101586.72
2019-05-13T10:14:50.049Z,101582.92
2019-05-13T10:17:22.423Z,101578.47
2019-05-13T10:20:12.499Z,101575.50
2019-05-13T10:22:44.374Z,101574.14
2019-05-13T10:25:18.917Z,101572.59
2019-05-13T10:27:51.144Z,101567.43
2019-05-13T10:30:23.124Z,101567.43
2019-05-13T10:32:59.319Z,101564.85
2019-05-13T10:35:29.622Z,101568.00
2019-05-13T10:38:04.324Z,101564.88
2019-05-13T10:40:38.040Z,101558.70
2019-05-13T10:43:27.131Z,101554.14
2019-05-13T10:45:43.609Z,101554.22
2019-05-13T10:48:15.416Z,101551.92
2019-05-13T10:50:47.074Z,101550.61
2019-05-13T10:53:18.739Z,101546.41
2019-05-13T10:55:52.204Z,101546.12
2019-05-13T10:58:23.707Z,101548.80
2019-05-13T11:00:56.815Z,101538.25
2019-05-13T11:03:28.392Z,101546.27
2019-05-13T11:06:00.084Z,101541.44
2019-05-13T11:08:33.012Z,101542.18
2019-05-13T11:11:05.235Z,101534.59
2019-05-13T11:13:52.303Z,101534.00
2019-05-13T11:16:12.214Z,101540.02
2019-05-13T11:18:44.123Z,101550.36
2019-05-13T11:21:16.193Z,101550.36
2019-05-13T11:23:48.287Z,101539.71
2019-05-13T11:26:22.107Z,101543.27
2019-05-13T11:28:53.187Z,101546.34
2019-05-13T11:31:24.777Z,101548.80
2019-05-13T11:33:56.716Z,101545.23
2019-05-13T11:36:28.507Z,101546.86
2019-05-13T11:39:03.030Z,101541.84
2019-05-13T11:41:33.560Z,101546.63
2019-05-13T11:44:12.566Z,101536.00
2019-05-13T11:46:38.604Z,101544.56
2019-05-13T11:49:11.834Z,101534.91
2019-05-13T11:51:43.730Z,101543.86
2019-05-13T11:54:15.371Z,101540.02
2019-05-13T11:56:50.570Z,101538.80
2019-05-13T11:59:22.039Z,101532.97
2019-05-13T12:01:54.794Z,101534.56
2019-05-13T12:04:26.814Z,101530.88
2019-05-13T12:06:58.460Z,101522.95
2019-05-13T12:09:31.990Z,101517.55
2019-05-13T12:12:03.747Z,101517.19
2019-05-13T12:14:48.426Z,101516.43
2019-05-13T12:17:13.907Z,101504.81
2019-05-13T12:19:43.320Z,101502.94
2019-05-13T12:22:14.952Z,101501.14
2019-05-13T12:24:46.685Z,101491.27
2019-05-13T12:27:18.260Z,101489.03
2019-05-13T12:29:52.827Z,101490.03
2019-05-13T12:32:24.302Z,101488.67
2019-05-13T12:34:55.903Z,101489.02
2019-05-13T12:37:27.567Z,101494.29
2019-05-13T12:40:02.896Z,101491.61
2019-05-13T12:42:33.790Z,101486.47
2019-05-13T12:45:10.203Z,101484.48
2019-05-13T12:47:43.244Z,101477.94
2019-05-13T12:50:15.529Z,101475.92
2019-05-13T12:52:47.218Z,101470.58
2019-05-13T12:55:18.870Z,101467.95
2019-05-13T12:57:52.662Z,101463.49
2019-05-13T13:00:23.960Z,101462.80
2019-05-13T13:02:55.659Z,101469.81
2019-05-13T13:05:33.176Z,101471.28
2019-05-13T13:08:18.547Z,101477.31
2019-05-13T13:13:07.544Z,101474.33
2019-05-13T13:15:43.480Z,101468.11
2019-05-13T13:18:14.290Z,101472.52
2019-05-13T13:20:46.025Z,101471.39
2019-05-13T13:23:17.661Z,101467.72
2019-05-13T13:25:54.186Z,101474.94
2019-05-13T13:28:23.960Z,101469.91
2019-05-13T13:30:55.931Z,101467.33
2019-05-13T13:33:28.585Z,101470.73
2019-05-13T13:36:04.331Z,101467.34
2019-05-13T13:38:33.853Z,101471.65
2019-05-13T13:41:05.873Z,101470.84
2019-05-13T13:43:37.611Z,101472.08
2019-05-13T13:46:25.147Z,101469.28
2019-05-13T13:51:17.392Z,101457.03
2019-05-13T13:53:49.156Z,101454.58
2019-05-13T13:56:25.180Z,101452.33
2019-05-13T13:58:54.232Z,101455.41
2019-05-13T14:01:27.118Z,101447.81
2019-05-13T14:04:02.797Z,101448.48
2019-05-13T14:06:58.943Z,101464.09
2019-05-13T14:07:09.024Z,101472.18
2019-05-13T14:07:21.538Z,101442.35
2019-05-13T14:09:07.962Z,101449.48
2019-05-13T14:11:41.797Z,101443.54
2019-05-13T14:14:12.790Z,101438.48
2019-05-13T14:16:46.765Z,101441.37
2019-05-13T14:19:18.712Z,101438.28
2019-05-13T14:21:52.541Z,101437.88
2019-05-13T14:24:24.047Z,101435.38
2019-05-13T14:26:55.645Z,101440.08
2019-05-13T14:29:38.630Z,101445.17
2019-05-13T14:32:01.393Z,101440.83
2019-05-13T14:34:34.177Z,101441.86
2019-05-13T14:37:06.373Z,101443.72
2019-05-13T14:39:37.912Z,101438.42
2019-05-13T14:42:11.577Z,101437.63
2019-05-13T14:44:42.996Z,101443.95
2019-05-13T14:47:14.581Z,101434.31
2019-05-13T14:49:46.181Z,101438.45
2019-05-13T14:52:17.885Z,101434.11
2019-05-13T14:54:51.444Z,101441.78
2019-05-13T14:57:23.223Z,101447.41
2019-05-13T14:59:54.876Z,101435.38
2019-05-13T15:02:26.832Z,101437.90
2019-05-13T15:04:59.179Z,101438.13
2019-05-13T15:07:32.216Z,101434.21
2019-05-13T15:10:05.789Z,101431.55
2019-05-13T15:12:37.233Z,101434.00
2019-05-13T15:15:09.769Z,101424.95
2019-05-13T15:17:42.634Z,101426.19
2019-05-13T15:20:16.627Z,101426.84
2019-05-13T15:22:48.635Z,101423.06
2019-05-13T15:25:22.123Z,101422.51
2019-05-13T15:27:54.027Z,101433.03
2019-05-13T15:30:25.715Z,101430.37
2019-05-13T15:32:57.396Z,101431.21
2019-05-13T15:38:01.345Z,101426.77
2019-05-13T15:40:33.070Z,101436.86
2019-05-13T15:43:04.955Z,101434.23
2019-05-13T15:45:36.797Z,101437.19
2019-05-13T15:48:08.607Z,101442.48
2019-05-13T15:50:42.224Z,101442.73
2019-05-13T15:53:13.514Z,101458.95
2019-05-13T15:55:45.193Z,101451.98
2019-05-13T15:58:16.892Z,101459.53
2019-05-13T16:00:48.606Z,101463.25
2019-05-13T16:03:20.284Z,101459.47
2019-05-13T16:05:53.542Z,101452.02
2019-05-13T16:08:25.244Z,101458.89
2019-05-13T16:10:57.440Z,101461.48
2019-05-13T16:13:29.531Z,101453.58
2019-05-13T16:16:02.796Z,101441.81
2019-05-13T16:18:34.733Z,101451.87
2019-05-13T16:21:06.691Z,101449.44
2019-05-13T16:23:38.756Z,101448.78
2019-05-13T16:26:11.634Z,101438.62
2019-05-13T16:28:44.011Z,101445.41
2019-05-13T16:31:15.779Z,101445.62
2019-05-13T16:33:47.715Z,101443.25
2019-05-13T16:36:22.103Z,101434.83
2019-05-13T16:38:52.874Z,101438.22
2019-05-13T16:41:24.956Z,101439.73
2019-05-13T16:43:56.712Z,101444.86
2019-05-13T16:46:31.423Z,101448.03
2019-05-13T16:49:02.094Z,101449.19
2019-05-13T16:51:33.550Z,101445.64
2019-05-13T16:54:05.599Z,101444.63
2019-05-13T16:56:41.822Z,101446.90
2019-05-13T16:59:12.256Z,101447.14
2019-05-13T17:01:45.880Z,101460.61
2019-05-13T17:04:17.643Z,101467.80
2019-05-13T17:06:49.497Z,101473.83
2019-05-13T17:09:22.485Z,101476.07
2019-05-13T17:11:57.006Z,101471.67
2019-05-13T17:14:32.294Z,101465.62
2019-05-13T17:17:03.698Z,101466.41
2019-05-13T17:19:35.563Z,101466.08
2019-05-13T17:22:07.604Z,101457.53
2019-05-13T17:24:42.652Z,101465.15
2019-05-13T17:27:14.517Z,101466.72
2019-05-13T17:29:46.360Z,101465.84
2019-05-13T17:32:22.315Z,101457.51
2019-05-13T17:34:53.464Z,101452.73
2019-05-13T17:37:26.659Z,101449.02
2019-05-13T17:40:11.848Z,101450.23
2019-05-13T17:42:44.116Z,101444.63
2019-05-13T17:45:18.023Z,101443.33
2019-05-13T17:47:51.851Z,101449.91
2019-05-13T17:50:24.919Z,101445.08
2019-05-13T17:52:58.314Z,101451.45
2019-05-13T17:55:30.156Z,101448.45
2019-05-13T17:58:08.159Z,101448.20
2019-05-13T18:00:41.496Z,101451.83
2019-05-13T18:03:13.536Z,101441.73
2019-05-13T18:05:47.529Z,101442.34
2019-05-13T18:08:20.028Z,101439.99
2019-05-13T18:10:52.088Z,101439.58
2019-05-13T18:13:26.693Z,101438.65
2019-05-13T18:16:02.538Z,101444.49
2019-05-13T18:18:43.130Z,101451.13
2019-05-13T18:21:08.855Z,101454.24
2019-05-13T18:23:41.469Z,101456.87
2019-05-13T18:26:16.067Z,101453.68
2019-05-13T18:28:46.883Z,101454.09
2019-05-13T18:31:18.796Z,101448.11
2019-05-13T18:33:53.958Z,101445.17
2019-05-13T18:36:31.664Z,101443.64
2019-05-13T18:39:05.090Z,101440.17
2019-05-13T18:41:37.383Z,101431.45
2019-05-13T18:44:14.101Z,101424.99
2019-05-13T18:46:46.396Z,101426.19
2019-05-13T18:49:18.190Z,101425.25
2019-05-13T18:51:49.913Z,101425.67
2019-05-13T18:54:21.754Z,101428.20
2019-05-13T18:56:53.817Z,101428.83
2019-05-13T18:59:26.005Z,101432.67
2019-05-13T19:02:01.080Z,101431.61
2019-05-13T19:04:32.905Z,101432.72
2019-05-13T19:07:17.556Z,101428.40
2019-05-13T19:09:49.222Z,101427.83
2019-05-13T19:12:22.123Z,101428.45
2019-05-13T19:14:54.961Z,101426.03
2019-05-13T19:17:32.079Z,101434.53
2019-05-13T19:20:02.994Z,101434.28
2019-05-13T19:22:37.936Z,101433.97
2019-05-13T19:25:11.990Z,101436.13
2019-05-13T19:27:43.491Z,101427.14
2019-05-13T19:30:21.399Z,101423.05
2019-05-13T19:32:54.176Z,101422.73
2019-05-13T19:35:26.845Z,101431.72
2019-05-13T19:38:01.495Z,101428.20
2019-05-13T19:40:33.960Z,101432.29
2019-05-13T19:43:05.925Z,101429.30
2019-05-13T19:45:37.585Z,101424.72
2019-05-13T19:48:11.862Z,101424.98
2019-05-13T19:50:43.251Z,101422.47
2019-05-13T19:53:15.296Z,101421.88
2019-05-13T19:55:47.370Z,101419.64
2019-05-13T19:58:21.507Z,101422.36
2019-05-13T20:00:52.723Z,101421.00
2019-05-13T20:03:26.182Z,101423.42
2019-05-13T20:05:58.095Z,101427.77
2019-05-13T20:08:32.006Z,101417.91
2019-05-13T20:11:03.933Z,101413.49
2019-05-13T20:13:38.592Z,101417.84
2019-05-13T20:16:11.703Z,101419.47
2019-05-13T20:18:43.787Z,101417.53
2019-05-13T20:21:15.459Z,101419.70
2019-05-13T20:23:47.669Z,101414.55
2019-05-13T20:26:21.693Z,101409.39
2019-05-13T20:28:54.392Z,101405.87
2019-05-13T20:31:27.963Z,101408.66
2019-05-13T20:34:01.704Z,101405.98
2019-05-13T20:36:33.119Z,101406.66
2019-05-13T20:39:05.977Z,101407.02
2019-05-13T20:41:38.165Z,101402.50
2019-05-13T20:44:10.130Z,101399.25
2019-05-13T20:46:42.348Z,101403.66
2019-05-13T20:49:14.344Z,101395.74
2019-05-13T20:51:46.223Z,101394.38
2019-05-13T20:54:18.182Z,101388.12
2019-05-13T20:56:51.805Z,101392.75
2019-05-13T20:59:23.521Z,101384.56
2019-05-13T21:01:55.297Z,101375.32
2019-05-13T21:04:27.963Z,101376.42
2019-05-13T21:07:01.926Z,101371.02
2019-05-13T21:09:33.235Z,101372.16
2019-05-13T21:12:05.198Z,101371.64
2019-05-13T21:14:38.566Z,101372.27
2019-05-13T21:17:12.215Z,101371.75
2019-05-13T21:19:43.624Z,101373.99
2019-05-13T21:22:15.826Z,101373.50
2019-05-13T21:24:47.554Z,101367.05
2019-05-13T21:27:19.437Z,101366.84
2019-05-13T21:29:52.028Z,101361.48
2019-05-13T21:32:24.975Z,101357.48
2019-05-13T21:34:56.960Z,101348.43
2019-05-13T21:37:29.019Z,101348.88
2019-05-13T21:40:00.969Z,101347.48
2019-05-13T21:42:33.148Z,101353.96
2019-05-13T21:45:07.454Z,101341.59
2019-05-13T21:47:39.414Z,101346.31
2019-05-13T21:50:11.811Z,101344.02
2019-05-13T21:52:44.106Z,101344.10
2019-05-13T21:55:15.857Z,101340.93
2019-05-13T21:57:47.593Z,101346.20
2019-05-13T22:00:23.713Z,101341.98
2019-05-13T22:02:56.328Z,101344.04
2019-05-13T22:05:28.244Z,101349.08
2019-05-13T22:08:01.659Z,101351.13
2019-05-13T22:10:33.534Z,101348.52
2019-05-13T22:13:05.415Z,101354.91
2019-05-13T22:15:37.475Z,101354.22
2019-05-13T22:18:11.334Z,101354.03
2019-05-13T22:20:49.739Z,101351.70
2019-05-13T22:23:17.684Z,101350.16
2019-05-13T22:25:51.451Z,101352.95
2019-05-13T22:28:22.918Z,101347.03
2019-05-13T22:30:54.785Z,101343.84
2019-05-13T22:33:26.927Z,101344.71
2019-05-13T22:36:01.368Z,101345.34
2019-05-13T22:38:32.659Z,101342.41
2019-05-13T22:41:04.473Z,101341.68
2019-05-13T22:43:36.526Z,101353.69
2019-05-13T22:46:08.709Z,101348.87
2019-05-13T22:48:41.899Z,101352.98
2019-05-13T22:51:13.958Z,101347.02
2019-05-13T22:53:45.721Z,101349.23
2019-05-13T22:56:17.583Z,101345.15
2019-05-13T22:58:51.650Z,101342.93
2019-05-13T23:01:23.332Z,101336.98
2019-05-13T23:03:55.338Z,101342.16
2019-05-13T23:06:27.552Z,101334.33
2019-05-13T23:09:01.740Z,101331.90
2019-05-13T23:11:33.463Z,101328.97
2019-05-13T23:14:09.967Z,101326.31
2019-05-13T23:16:38.704Z,101330.16
2019-05-13T23:19:11.156Z,101325.59
2019-05-13T23:21:42.942Z,101328.08
2019-05-13T23:24:15.738Z,101329.25
2019-05-13T23:26:47.485Z,101335.02
2019-05-13T23:29:21.423Z,101329.33
2019-05-13T23:31:52.823Z,101328.03
2019-05-13T23:34:24.588Z,101334.85
2019-05-13T23:36:56.448Z,101331.38
2019-05-13T23:39:28.310Z,101328.40
2019-05-13T23:42:01.547Z,101328.92
2019-05-13T23:44:33.151Z,101330.08
2019-05-13T23:47:04.942Z,101320.05
2019-05-13T23:49:36.870Z,101320.63
2019-05-13T23:52:11.668Z,101321.78
2019-05-13T23:54:43.272Z,101331.84
2019-05-13T23:57:15.113Z,101321.28
2019-05-13T23:59:47.095Z,101325.41
